createdAt,value
2018-04-13T00:01:11.575Z,3.9
2018-04-13T00:04:11.597Z,3.5
2018-04-13T00:07:11.632Z,3
2018-04-13T00:10:11.617Z,2.9
2018-04-13T00:13:11.694Z,3.5
2018-04-13T00:16:11.722Z,3.6
2018-04-13T00:19:11.663Z,3.8
2018-04-13T00:22:11.687Z,3.6
2018-04-13T00:25:11.691Z,2.6
2018-04-13T00:28:11.761Z,2.9
2018-04-13T00:31:11.534Z,3.2
2018-04-13T00:34:11.686Z,3.3
2018-04-13T00:37:11.717Z,3.4
2018-04-13T00:40:11.370Z,5
2018-04-13T00:43:11.458Z,3
2018-04-13T00:46:11.550Z,2.9
2018-04-13T00:49:11.558Z,3
2018-04-13T00:52:11.610Z,3.1
2018-04-13T00:55:11.615Z,3.8
2018-04-13T00:58:11.696Z,3.5
2018-04-13T01:01:11.558Z,3
2018-04-13T01:04:11.603Z,3.1
2018-04-13T01:07:11.592Z,2.8
2018-04-13T01:10:11.625Z,2.6
2018-04-13T01:13:11.516Z,3
2018-04-13T01:16:11.559Z,3.1
2018-04-13T01:19:11.623Z,3
2018-04-13T01:22:11.596Z,2.9
2018-04-13T01:25:11.656Z,3.6
2018-04-13T01:28:11.527Z,3.4
2018-04-13T01:31:11.611Z,3.8
2018-04-13T01:34:11.506Z,3.3
2018-04-13T01:37:11.653Z,3
2018-04-13T01:40:11.684Z,2.8
2018-04-13T01:43:11.681Z,3.3
2018-04-13T01:46:11.647Z,3
2018-04-13T01:49:11.544Z,3.2
2018-04-13T01:52:11.723Z,4.3
2018-04-13T01:55:11.654Z,3
2018-04-13T01:58:11.506Z,2.9
2018-04-13T02:01:11.478Z,2.6
2018-04-13T02:04:11.688Z,3.1
2018-04-13T02:07:11.455Z,2.6
2018-04-13T02:10:11.593Z,3
2018-04-13T02:13:11.696Z,2.7
2018-04-13T02:16:11.622Z,2.9
2018-04-13T02:19:11.493Z,3.4
2018-04-13T02:22:11.474Z,3.1
2018-04-13T02:25:11.561Z,3.1
2018-04-13T02:28:11.466Z,3.3
2018-04-13T02:31:11.550Z,3.6
2018-04-13T02:34:11.498Z,2.8
2018-04-13T02:37:11.590Z,3
2018-04-13T02:40:11.577Z,3.3
2018-04-13T02:43:11.590Z,3.6
2018-04-13T02:46:11.604Z,3.1
2018-04-13T02:49:11.598Z,2.8
2018-04-13T02:52:11.457Z,3
2018-04-13T02:55:11.665Z,3.1
2018-04-13T02:58:11.512Z,3.3
2018-04-13T03:01:11.664Z,2.9
2018-04-13T03:04:11.665Z,3.2
2018-04-13T03:07:11.664Z,4
2018-04-13T03:10:11.571Z,3.2
2018-04-13T03:13:11.621Z,2.8
2018-04-13T03:16:11.528Z,3
2018-04-13T03:19:11.666Z,3.1
2018-04-13T03:22:11.652Z,3
2018-04-13T03:25:11.668Z,3.1
2018-04-13T03:28:11.634Z,3
2018-04-13T03:31:11.406Z,2.9
2018-04-13T03:34:11.453Z,3.2
2018-04-13T03:37:11.553Z,2.8
2018-04-13T03:40:11.492Z,2.8
2018-04-13T03:43:11.609Z,2.7
2018-04-13T03:46:11.663Z,3.1
2018-04-13T03:49:11.549Z,2.8
2018-04-13T03:52:11.633Z,2.8
2018-04-13T03:55:11.738Z,2.9
2018-04-13T03:58:11.487Z,3.1
2018-04-13T04:01:11.444Z,2.9
2018-04-13T04:04:11.602Z,3
2018-04-13T04:07:11.500Z,3.4
2018-04-13T04:10:11.361Z,2.7
2018-04-13T04:13:11.370Z,2.9
2018-04-13T04:16:11.420Z,3
2018-04-13T04:19:11.557Z,2.7
2018-04-13T04:22:11.573Z,2.8
2018-04-13T04:25:11.489Z,2.8
2018-04-13T04:28:11.685Z,3
2018-04-13T04:31:11.619Z,2.8
2018-04-13T04:34:11.526Z,2.8
2018-04-13T04:37:11.733Z,2.7
2018-04-13T04:40:11.551Z,2.7
2018-04-13T04:43:11.580Z,2.8
2018-04-13T04:46:11.447Z,2.6
2018-04-13T04:49:11.421Z,2.8
2018-04-13T04:52:11.377Z,2.6
2018-04-13T04:55:11.657Z,2.8
2018-04-13T04:58:11.411Z,2.6
2018-04-13T05:01:11.454Z,2.8
2018-04-13T05:04:11.452Z,2.6
2018-04-13T05:07:11.568Z,2.6
2018-04-13T05:10:11.544Z,2.7
2018-04-13T05:13:11.603Z,4.5
2018-04-13T05:16:11.514Z,5
2018-04-13T05:19:11.411Z,7.1
2018-04-13T05:22:11.449Z,4.8
2018-04-13T05:25:11.411Z,5.3
2018-04-13T05:28:11.541Z,5.3
2018-04-13T05:31:11.650Z,7
2018-04-13T05:34:11.356Z,6.4
2018-04-13T05:37:11.494Z,4.5
2018-04-13T05:40:11.377Z,5.6
2018-04-13T05:43:11.438Z,7.7
2018-04-13T05:46:11.510Z,4.1
2018-04-13T05:49:11.617Z,3.8
2018-04-13T05:52:11.505Z,6.4
2018-04-13T05:55:11.521Z,5.5
2018-04-13T05:58:11.618Z,6.7
2018-04-13T06:01:11.405Z,5.1
2018-04-13T06:04:11.630Z,5.1
2018-04-13T06:07:11.362Z,4.4
2018-04-13T06:10:11.549Z,3.7
2018-04-13T06:13:11.589Z,4.9
2018-04-13T06:16:11.570Z,6.5
2018-04-13T06:19:11.335Z,6.1
2018-04-13T06:22:11.905Z,5.1
2018-04-13T06:25:11.432Z,8.2
2018-04-13T06:28:11.756Z,7.8
2018-04-13T06:31:11.560Z,8.7
2018-04-13T06:34:11.588Z,7.2
2018-04-13T06:37:11.938Z,13.5
2018-04-13T06:40:11.684Z,8.4
2018-04-13T06:43:13.618Z,10.2
2018-04-13T06:46:11.528Z,12.9
2018-04-13T06:49:11.369Z,7.6
2018-04-13T06:52:11.540Z,8.9
2018-04-13T06:55:11.554Z,11.2
2018-04-13T06:58:11.541Z,6.3
2018-04-13T07:01:11.754Z,9.4
2018-04-13T07:04:11.432Z,8.6
2018-04-13T07:07:11.454Z,6.5
2018-04-13T07:10:11.480Z,5.7
2018-04-13T07:13:11.468Z,7.2
2018-04-13T07:16:11.430Z,6
2018-04-13T07:19:11.546Z,6.4
2018-04-13T07:22:11.529Z,6.2
2018-04-13T07:25:11.322Z,6.6
2018-04-13T07:28:11.546Z,9.3
2018-04-13T07:31:11.348Z,5.8
2018-04-13T07:34:11.542Z,8
2018-04-13T07:37:11.470Z,7.3
2018-04-13T07:40:11.536Z,9.4
2018-04-13T07:43:11.415Z,6.1
2018-04-13T07:46:11.584Z,5.5
2018-04-13T07:51:30.703Z,6.5
2018-04-13T07:58:52.910Z,11.3
2018-04-13T08:01:53.765Z,7.9
2018-04-13T08:04:52.616Z,5.5
2018-04-13T08:09:16.791Z,8.2
2018-04-13T08:12:17.245Z,6.8
2018-04-13T08:17:22.357Z,7.4
2018-04-13T08:20:22.332Z,6.9
2018-04-13T08:23:22.561Z,6
2018-04-13T08:26:22.133Z,7.8
2018-04-13T08:29:22.368Z,7.1
2018-04-13T08:35:55.960Z,5.8
2018-04-13T08:38:56.002Z,5.1
2018-04-13T08:41:56.169Z,6.9
2018-04-13T08:44:56.177Z,7.7
2018-04-13T08:47:55.831Z,7.7
2018-04-13T08:50:56.163Z,6.6
2018-04-13T08:53:56.235Z,6.1
2018-04-13T08:56:56.013Z,7
2018-04-13T09:02:43.468Z,7.6
2018-04-13T09:07:34.611Z,4.9
2018-04-13T09:12:24.926Z,5.6
2018-04-13T09:15:25.023Z,6.9
2018-04-13T09:18:24.928Z,6.1
2018-04-13T09:21:24.973Z,7.8
2018-04-13T09:24:25.037Z,4.6
2018-04-13T09:27:25.088Z,4.9
2018-04-13T09:37:00.503Z,4.9
2018-04-13T09:40:00.487Z,6.6
2018-04-13T09:43:00.354Z,4.7
2018-04-13T09:46:00.461Z,7.7
2018-04-13T09:49:00.467Z,8.6
2018-04-13T09:52:00.390Z,6.3
2018-04-13T09:55:00.254Z,5.1
2018-04-13T09:58:00.317Z,6.1
2018-04-13T10:01:00.416Z,5.1
2018-04-13T10:04:00.401Z,4.3
2018-04-13T10:07:00.445Z,5.8
2018-04-13T10:10:00.231Z,4.5
2018-04-13T10:13:00.464Z,4.3
2018-04-13T10:16:00.512Z,5.3
2018-04-13T10:19:00.397Z,4.2
2018-04-13T10:22:00.407Z,4.4
2018-04-13T10:25:00.255Z,5
2018-04-13T10:28:00.317Z,4.2
2018-04-13T10:31:00.356Z,3.7
2018-04-13T10:34:00.319Z,3.7
2018-04-13T10:37:00.259Z,8.5
2018-04-13T10:40:00.289Z,4.3
2018-04-13T10:43:00.477Z,3.9
2018-04-13T10:46:00.305Z,3.3
2018-04-13T10:49:00.374Z,5.3
2018-04-13T10:52:00.240Z,4.6
2018-04-13T10:55:00.262Z,3.2
2018-04-13T10:58:00.416Z,3.8
2018-04-13T11:01:00.213Z,4.9
2018-04-13T11:04:00.272Z,3
2018-04-13T11:07:00.330Z,5
2018-04-13T11:10:00.309Z,4.4
2018-04-13T11:13:00.487Z,3.7
2018-04-13T11:16:00.576Z,3.6
2018-04-13T11:19:00.388Z,3.8
2018-04-13T11:22:00.396Z,7.5
2018-04-13T11:25:00.297Z,4.8
2018-04-13T11:28:00.423Z,6.3
2018-04-13T11:31:00.429Z,5.7
2018-04-13T11:34:00.259Z,5
2018-04-13T11:37:00.549Z,5.3
2018-04-13T11:40:00.324Z,6.3
2018-04-13T11:43:00.244Z,6.3
2018-04-13T11:46:00.346Z,3.3
2018-04-13T11:49:00.417Z,5
2018-04-13T11:52:00.435Z,3
2018-04-13T11:55:00.385Z,3.2
2018-04-13T11:58:00.270Z,3.9
2018-04-13T12:01:00.487Z,4.1
2018-04-13T12:04:00.430Z,5.1
2018-04-13T12:07:00.407Z,3.4
2018-04-13T12:10:00.384Z,3.7
2018-04-13T12:13:00.362Z,2.8
2018-04-13T12:16:00.519Z,3
2018-04-13T12:19:00.396Z,3.9
2018-04-13T12:22:00.681Z,3.2
2018-04-13T12:25:00.281Z,3.2
2018-04-13T12:28:00.272Z,2.9
2018-04-13T12:31:00.384Z,3.4
2018-04-13T12:34:00.370Z,2.7
2018-04-13T12:37:00.504Z,3.1
2018-04-13T12:40:00.320Z,2.9
2018-04-13T12:43:00.284Z,3.7
2018-04-13T12:46:00.263Z,2.2
2018-04-13T12:49:00.764Z,3.2
2018-04-13T12:52:00.743Z,4.1
2018-04-13T12:55:04.041Z,6.1
2018-04-13T12:58:00.238Z,3.2
2018-04-13T13:01:00.386Z,3.3
2018-04-13T13:04:00.287Z,2.7
2018-04-13T13:07:00.533Z,3.7
2018-04-13T13:12:35.309Z,3.7
2018-04-13T13:15:35.618Z,5.3
2018-04-13T13:18:35.187Z,3.2
2018-04-13T13:21:35.268Z,4.2
2018-04-13T13:24:35.354Z,3.1
2018-04-13T13:27:35.409Z,6.1
2018-04-13T13:30:35.304Z,2.6
2018-04-13T13:33:35.402Z,4.3
2018-04-13T13:36:35.371Z,3.9
2018-04-13T13:39:35.765Z,5.4
2018-04-13T13:42:35.317Z,4.1
2018-04-13T13:45:35.336Z,11.1
2018-04-13T13:48:35.271Z,4.4
2018-04-13T13:51:35.397Z,7.4
2018-04-13T13:54:35.336Z,5.5
2018-04-13T13:57:35.340Z,3.2
2018-04-13T14:00:35.410Z,3.8
2018-04-13T14:03:35.375Z,3.7
2018-04-13T14:06:35.237Z,4.7
2018-04-13T14:09:35.359Z,4.7
2018-04-13T14:12:35.402Z,4.2
2018-04-13T14:15:35.230Z,5.3
2018-04-13T14:18:35.485Z,5.7
2018-04-13T14:21:35.176Z,3.3
2018-04-13T14:24:35.376Z,7.1
2018-04-13T14:27:35.303Z,4.4
2018-04-13T14:30:35.349Z,4.3
2018-04-13T14:33:35.346Z,4.5
2018-04-13T14:36:35.357Z,4.6
2018-04-13T14:39:35.542Z,4.4
2018-04-13T14:42:35.155Z,3.1
2018-04-13T14:45:35.278Z,4
2018-04-13T14:48:35.283Z,6.3
2018-04-13T14:51:35.376Z,4.1
2018-04-13T14:54:35.201Z,3.1
2018-04-13T14:57:35.392Z,3.7
2018-04-13T15:00:35.599Z,4.2
2018-04-13T15:03:35.291Z,4
2018-04-13T15:06:35.257Z,3.9
2018-04-13T15:09:35.190Z,4.4
2018-04-13T15:12:35.279Z,3.2
2018-04-13T15:15:35.258Z,3.2
2018-04-13T15:18:35.765Z,3.7
2018-04-13T15:21:35.420Z,3.6
2018-04-13T15:24:35.398Z,2.9
2018-04-13T15:27:35.291Z,2.9
2018-04-13T15:30:35.333Z,3.2
2018-04-13T15:33:35.311Z,3.8
2018-04-13T15:36:35.555Z,3
2018-04-13T15:39:35.324Z,3.4
2018-04-13T15:42:35.212Z,3.2
2018-04-13T15:45:35.198Z,2.7
2018-04-13T15:48:35.339Z,3.1
2018-04-13T15:51:35.618Z,4.4
2018-04-13T15:54:35.305Z,8.2
2018-04-13T15:57:35.349Z,3.6
2018-04-13T16:00:35.256Z,3.5
2018-04-13T16:03:35.358Z,4
2018-04-13T16:06:35.362Z,3
2018-04-13T16:09:35.395Z,3
2018-04-13T16:12:35.225Z,3.4
2018-04-13T16:15:35.179Z,4
2018-04-13T16:18:35.189Z,5.4
2018-04-13T16:21:35.231Z,6
2018-04-13T16:24:35.385Z,3.2
2018-04-13T16:27:35.333Z,4.6
2018-04-13T16:30:35.137Z,3.6
2018-04-13T16:33:35.124Z,4.7
2018-04-13T16:36:35.204Z,2.7
2018-04-13T16:39:35.329Z,4
2018-04-13T16:42:35.401Z,3.5
2018-04-13T16:45:35.267Z,3
2018-04-13T16:48:35.405Z,2.7
2018-04-13T16:51:35.300Z,2.3
2018-04-13T16:54:35.288Z,2.3
2018-04-13T16:57:35.273Z,3.1
2018-04-13T17:00:35.358Z,3.3
2018-04-13T17:03:35.119Z,2.6
2018-04-13T17:06:35.388Z,3.6
2018-04-13T17:09:35.251Z,3
2018-04-13T17:12:35.399Z,3.3
2018-04-13T17:15:35.096Z,3.2
2018-04-13T17:18:35.270Z,2.3
2018-04-13T17:21:35.286Z,3.6
2018-04-13T17:24:35.340Z,2.9
2018-04-13T17:27:35.303Z,2.1
2018-04-13T17:30:35.325Z,2
2018-04-13T17:33:35.237Z,2.2
2018-04-13T17:36:35.319Z,2.1
2018-04-13T17:39:35.303Z,2.3
2018-04-13T17:42:35.264Z,2.1
2018-04-13T17:45:35.256Z,3.8
2018-04-13T17:48:35.167Z,2.7
2018-04-13T17:51:35.389Z,3
2018-04-13T17:54:35.333Z,2
2018-04-13T17:57:35.101Z,3.2
2018-04-13T18:00:35.652Z,2
2018-04-13T18:03:35.364Z,2.8
2018-04-13T18:06:35.767Z,2.4
2018-04-13T18:09:35.248Z,2.5
2018-04-13T18:12:35.477Z,2
2018-04-13T18:15:35.300Z,2.2
2018-04-13T18:18:35.415Z,2.1
2018-04-13T18:21:35.295Z,2.3
2018-04-13T18:24:35.489Z,2
2018-04-13T18:27:35.218Z,2.2
2018-04-13T18:30:35.454Z,2.1
2018-04-13T18:33:35.324Z,2.8
2018-04-13T18:36:35.232Z,2
2018-04-13T18:39:35.433Z,5.1
2018-04-13T18:42:35.315Z,4.6
2018-04-13T18:45:35.279Z,3.4
2018-04-13T18:48:35.255Z,4.3
2018-04-13T18:51:35.228Z,5.2
2018-04-13T18:54:35.376Z,4.9
2018-04-13T18:57:35.322Z,2.9
2018-04-13T19:00:35.247Z,2.8
2018-04-13T19:03:35.955Z,5.3
2018-04-13T19:06:35.276Z,4.3
2018-04-13T19:09:35.381Z,4.5
2018-04-13T19:12:35.332Z,4.1
2018-04-13T19:15:35.248Z,3.1
2018-04-13T19:18:35.182Z,3.5
2018-04-13T19:21:35.162Z,3
2018-04-13T19:24:35.399Z,6.6
2018-04-13T19:27:35.347Z,2.2
2018-04-13T19:30:35.308Z,3.1
2018-04-13T19:33:35.719Z,3.9
2018-04-13T19:36:35.291Z,4.1
2018-04-13T19:39:35.405Z,3.5
2018-04-13T19:42:35.251Z,5.7
2018-04-13T19:45:35.165Z,3.5
2018-04-13T19:48:35.088Z,5.1
2018-04-13T19:51:35.381Z,3.3
2018-04-13T19:54:35.280Z,3.2
2018-04-13T19:57:35.086Z,2
2018-04-13T20:00:35.246Z,4.5
2018-04-13T20:03:35.178Z,3.4
2018-04-13T20:06:35.283Z,5
2018-04-13T20:09:35.123Z,2.3
2018-04-13T20:12:35.436Z,3.2
2018-04-13T20:15:35.096Z,2.1
2018-04-13T20:18:35.085Z,2.3
2018-04-13T20:21:35.283Z,2.2
2018-04-13T20:24:35.182Z,2.9
2018-04-13T20:27:35.276Z,4.1
2018-04-13T20:30:35.084Z,3
2018-04-13T20:33:35.161Z,2.1
2018-04-13T20:36:35.128Z,2.6
2018-04-13T20:39:35.293Z,3.3
2018-04-13T20:42:35.172Z,2.3
2018-04-13T20:45:35.140Z,2.3
2018-04-13T20:48:35.158Z,3.1
2018-04-13T20:51:35.277Z,2.6
2018-04-13T20:54:35.711Z,2.3
2018-04-13T20:57:35.265Z,2.6
2018-04-13T21:00:35.053Z,3.4
2018-04-13T21:03:35.234Z,2.4
2018-04-13T21:06:35.385Z,2.6
2018-04-13T21:09:35.182Z,2.5
2018-04-13T21:12:35.527Z,2.2
2018-04-13T21:15:35.166Z,2.4
2018-04-13T21:18:35.185Z,2.8
2018-04-13T21:21:35.228Z,2.8
2018-04-13T21:24:35.139Z,2.2
2018-04-13T21:27:35.220Z,2.2
2018-04-13T21:30:35.382Z,2.4
2018-04-13T21:33:35.149Z,2.2
2018-04-13T21:36:35.167Z,2.1
2018-04-13T21:39:35.186Z,2.5
2018-04-13T21:42:35.089Z,2.4
2018-04-13T21:45:35.197Z,2
2018-04-13T21:48:35.063Z,2.2
2018-04-13T21:51:35.265Z,2.2
2018-04-13T21:54:36.505Z,2.3
2018-04-13T21:57:35.050Z,2.3
2018-04-13T22:00:35.186Z,2.3
2018-04-13T22:03:35.226Z,2.5
2018-04-13T22:06:35.346Z,3.2
2018-04-13T22:09:35.296Z,2.5
2018-04-13T22:12:35.042Z,3.1
2018-04-13T22:15:35.215Z,2.1
2018-04-13T22:18:35.289Z,2.4
2018-04-13T22:21:35.252Z,2.4
2018-04-13T22:24:35.046Z,2.5
2018-04-13T22:27:35.222Z,2.2
2018-04-13T22:30:35.349Z,2.2
2018-04-13T22:33:35.083Z,2.3
2018-04-13T22:36:35.411Z,2.2
2018-04-13T22:39:35.112Z,2.9
2018-04-13T22:42:35.146Z,2.2
2018-04-13T22:45:35.143Z,2.3
2018-04-13T22:48:35.251Z,2.3
2018-04-13T22:51:35.153Z,2.5
2018-04-13T22:54:35.251Z,2.4
2018-04-13T22:57:35.170Z,2.4
2018-04-13T23:00:35.187Z,2.4
2018-04-13T23:03:35.136Z,2.3
2018-04-13T23:06:35.046Z,2.3
2018-04-13T23:09:35.138Z,2.4
2018-04-13T23:12:35.200Z,2.6
2018-04-13T23:15:35.152Z,2.3
2018-04-13T23:18:35.216Z,2.4
2018-04-13T23:21:35.374Z,2.3
2018-04-13T23:24:35.080Z,2.3
2018-04-13T23:27:35.020Z,2.5
2018-04-13T23:30:35.258Z,3.4
2018-04-13T23:33:35.092Z,2.2
2018-04-13T23:36:35.152Z,2.2
2018-04-13T23:39:35.154Z,2.2
2018-04-13T23:42:35.113Z,2.3
2018-04-13T23:45:35.234Z,2.7
2018-04-13T23:48:34.989Z,2.5
2018-04-13T23:51:35.131Z,2.5
2018-04-13T23:54:35.097Z,2.5
2018-04-13T23:57:35.190Z,2.5
